createdAt,value
2018-07-22T00:00:58.808Z,7.20
2018-07-22T00:01:58.991Z,6.80
2018-07-22T00:02:59.200Z,7.20
2018-07-22T00:03:59.379Z,6.60
2018-07-22T00:04:59.556Z,6.90
2018-07-22T00:05:59.739Z,7.00
2018-07-22T00:06:59.921Z,6.60
2018-07-22T00:08:00.659Z,6.90
2018-07-22T00:09:00.212Z,7.10
2018-07-22T00:10:00.390Z,6.90
2018-07-22T00:11:00.572Z,6.90
2018-07-22T00:12:00.761Z,6.60
2018-07-22T00:13:00.942Z,6.90
2018-07-22T00:14:01.140Z,7.30
2018-07-22T00:15:01.299Z,6.90
2018-07-22T00:16:01.478Z,7.50
2018-07-22T00:17:01.657Z,7.00
2018-07-22T00:18:01.832Z,7.70
2018-07-22T00:19:02.010Z,7.10
2018-07-22T00:20:02.185Z,7.10
2018-07-22T00:21:02.360Z,7.40
2018-07-22T00:22:02.537Z,7.10
2018-07-22T00:23:02.716Z,7.40
2018-07-22T00:24:02.894Z,8.20
2018-07-22T00:25:03.075Z,7.40
2018-07-22T00:26:03.254Z,7.90
2018-07-22T00:27:03.439Z,7.70
2018-07-22T00:28:03.616Z,8.20
2018-07-22T00:29:03.804Z,8.20
2018-07-22T00:30:03.964Z,8.40
2018-07-22T00:31:04.148Z,8.80
2018-07-22T00:32:04.325Z,9.30
2018-07-22T00:33:04.502Z,8.60
2018-07-22T00:34:04.682Z,8.30
2018-07-22T00:35:04.850Z,8.40
2018-07-22T00:36:05.026Z,9.10
2018-07-22T00:37:05.203Z,9.10
2018-07-22T00:38:05.384Z,8.90
2018-07-22T00:39:05.559Z,8.80
2018-07-22T00:40:05.735Z,9.40
2018-07-22T00:41:05.909Z,8.40
2018-07-22T00:42:06.088Z,8.90
2018-07-22T00:43:06.264Z,9.20
2018-07-22T00:44:06.439Z,9.40
2018-07-22T00:45:06.621Z,8.60
2018-07-22T00:46:06.797Z,8.60
2018-07-22T00:47:06.973Z,8.80
2018-07-22T00:48:07.151Z,9.00
2018-07-22T00:49:07.321Z,8.20
2018-07-22T00:50:07.501Z,8.70
2018-07-22T00:51:07.711Z,8.40
2018-07-22T00:52:07.902Z,8.20
2018-07-22T00:53:08.080Z,7.90
2018-07-22T00:54:08.251Z,8.20
2018-07-22T00:55:08.428Z,8.10
2018-07-22T00:56:08.599Z,8.00
2018-07-22T00:57:08.775Z,7.90
2018-07-22T00:58:08.946Z,8.50
2018-07-22T00:59:09.125Z,8.70
2018-07-22T01:00:09.399Z,8.00
2018-07-22T01:01:09.489Z,8.20
2018-07-22T01:02:09.675Z,8.20
2018-07-22T01:03:09.849Z,8.30
2018-07-22T01:04:10.031Z,8.40
2018-07-22T01:05:10.216Z,8.60
2018-07-22T01:06:10.389Z,8.50
2018-07-22T01:07:10.565Z,8.30
2018-07-22T01:08:10.744Z,8.20
2018-07-22T01:09:10.919Z,8.50
2018-07-22T01:10:11.098Z,8.30
2018-07-22T01:11:11.273Z,8.10
2018-07-22T01:12:11.450Z,8.00
2018-07-22T01:13:11.627Z,8.00
2018-07-22T01:14:11.802Z,8.20
2018-07-22T01:15:11.974Z,8.50
2018-07-22T01:16:12.155Z,8.90
2018-07-22T01:17:12.329Z,8.40
2018-07-22T01:18:12.504Z,8.70
2018-07-22T01:19:12.687Z,8.70
2018-07-22T01:20:12.861Z,8.70
2018-07-22T01:21:13.037Z,8.30
2018-07-22T01:22:13.216Z,8.00
2018-07-22T01:23:13.391Z,8.50
2018-07-22T01:24:13.572Z,8.50
2018-07-22T01:25:13.754Z,8.20
2018-07-22T01:26:13.935Z,8.70
2018-07-22T01:27:14.110Z,8.80
2018-07-22T01:28:14.287Z,8.50
2018-07-22T01:29:14.460Z,8.80
2018-07-22T01:30:14.640Z,8.50
2018-07-22T01:31:14.817Z,8.40
2018-07-22T01:32:14.994Z,8.50
2018-07-22T01:33:15.168Z,8.60
2018-07-22T01:34:15.341Z,8.80
2018-07-22T01:35:15.520Z,8.20
2018-07-22T01:36:15.699Z,8.90
2018-07-22T01:37:15.884Z,9.30
2018-07-22T01:38:16.067Z,8.70
2018-07-22T01:39:16.242Z,8.00
2018-07-22T01:40:16.420Z,7.50
2018-07-22T01:41:16.601Z,8.60
2018-07-22T01:42:16.781Z,8.70
2018-07-22T01:43:16.984Z,8.80
2018-07-22T01:44:17.136Z,8.60
2018-07-22T01:45:17.312Z,8.20
2018-07-22T01:46:17.489Z,8.30
2018-07-22T01:47:17.658Z,7.90
2018-07-22T01:48:17.838Z,8.50
2018-07-22T01:49:18.021Z,8.60
2018-07-22T01:50:18.206Z,8.10
2018-07-22T01:51:18.377Z,8.20
2018-07-22T01:52:18.556Z,8.00
2018-07-22T01:53:18.732Z,8.50
2018-07-22T01:54:18.907Z,8.00
2018-07-22T01:55:19.085Z,8.00
2018-07-22T01:56:19.257Z,8.10
2018-07-22T01:57:19.436Z,8.20
2018-07-22T01:58:19.616Z,8.70
2018-07-22T01:59:19.791Z,8.20
2018-07-22T02:00:19.966Z,8.10
2018-07-22T02:01:20.141Z,8.20
2018-07-22T02:02:20.312Z,8.00
2018-07-22T02:03:20.497Z,8.10
2018-07-22T02:04:20.677Z,7.90
2018-07-22T02:05:20.857Z,8.50
2018-07-22T02:06:21.043Z,7.80
2018-07-22T02:07:21.210Z,8.20
2018-07-22T02:08:21.383Z,8.60
2018-07-22T02:09:21.556Z,8.60
2018-07-22T02:10:21.742Z,8.40
2018-07-22T02:11:21.911Z,8.30
2018-07-22T02:12:22.090Z,8.40
2018-07-22T02:13:22.267Z,8.70
2018-07-22T02:14:22.442Z,7.90
2018-07-22T02:15:22.619Z,8.30
2018-07-22T02:16:22.791Z,8.10
2018-07-22T02:17:22.972Z,7.60
2018-07-22T02:18:23.148Z,7.60
2018-07-22T02:19:23.324Z,7.90
2018-07-22T02:20:23.508Z,8.20
2018-07-22T02:21:23.685Z,7.90
2018-07-22T02:22:23.862Z,8.00
2018-07-22T02:23:24.038Z,8.80
2018-07-22T02:24:24.217Z,7.80
2018-07-22T02:25:24.400Z,8.10
2018-07-22T02:26:24.581Z,8.60
2018-07-22T02:27:24.756Z,8.50
2018-07-22T02:28:24.931Z,8.40
2018-07-22T02:29:25.106Z,8.80
2018-07-22T02:30:25.280Z,7.90
2018-07-22T02:31:25.457Z,8.30
2018-07-22T02:32:25.639Z,8.20
2018-07-22T02:33:25.819Z,8.20
2018-07-22T02:34:25.995Z,8.90
2018-07-22T02:35:26.167Z,8.40
2018-07-22T02:36:26.347Z,8.50
2018-07-22T02:37:26.527Z,8.90
2018-07-22T02:38:26.698Z,9.20
2018-07-22T02:39:26.867Z,8.60
2018-07-22T02:40:27.054Z,8.80
2018-07-22T02:41:27.244Z,9.10
2018-07-22T02:42:27.425Z,9.20
2018-07-22T02:43:27.592Z,9.00
2018-07-22T02:44:27.765Z,9.40
2018-07-22T02:45:27.941Z,9.30
2018-07-22T02:46:28.123Z,9.00
2018-07-22T02:47:28.297Z,8.80
2018-07-22T02:48:28.472Z,8.70
2018-07-22T02:49:28.644Z,8.50
2018-07-22T02:50:28.826Z,8.40
2018-07-22T02:51:29.011Z,9.20
2018-07-22T02:52:29.183Z,8.60
2018-07-22T02:53:29.368Z,8.90
2018-07-22T02:54:29.537Z,8.50
2018-07-22T02:55:29.718Z,9.00
2018-07-22T02:56:29.893Z,9.00
2018-07-22T02:57:30.072Z,9.60
2018-07-22T02:58:30.237Z,8.60
2018-07-22T02:59:30.415Z,9.00
2018-07-22T03:00:30.594Z,8.70
2018-07-22T03:01:30.773Z,9.20
2018-07-22T03:02:31.001Z,9.20
2018-07-22T03:03:31.223Z,8.60
2018-07-22T03:04:31.310Z,8.80
2018-07-22T03:05:31.494Z,8.10
2018-07-22T03:06:31.673Z,9.50
2018-07-22T03:07:31.854Z,8.50
2018-07-22T03:08:32.029Z,8.60
2018-07-22T03:09:32.212Z,9.10
2018-07-22T03:10:32.389Z,8.60
2018-07-22T03:11:32.574Z,8.80
2018-07-22T03:12:32.750Z,8.80
2018-07-22T03:13:32.925Z,8.80
2018-07-22T03:14:33.106Z,9.10
2018-07-22T03:15:33.282Z,9.80
2018-07-22T03:16:33.463Z,9.70
2018-07-22T03:17:33.640Z,9.30
2018-07-22T03:18:33.817Z,9.30
2018-07-22T03:19:33.997Z,9.50
2018-07-22T03:20:34.174Z,10.00
2018-07-22T03:21:34.355Z,9.20
2018-07-22T03:22:34.529Z,9.50
2018-07-22T03:23:34.707Z,9.00
2018-07-22T03:24:34.887Z,9.50
2018-07-22T03:25:35.065Z,9.40
2018-07-22T03:26:35.238Z,9.10
2018-07-22T03:27:35.412Z,9.20
2018-07-22T03:28:35.589Z,9.00
2018-07-22T03:29:35.762Z,8.80
2018-07-22T03:30:35.939Z,9.00
2018-07-22T03:31:36.115Z,9.00
2018-07-22T03:32:36.297Z,9.70
2018-07-22T03:33:36.467Z,9.30
2018-07-22T03:34:36.651Z,9.10
2018-07-22T03:35:36.827Z,9.10
2018-07-22T03:36:37.003Z,9.30
2018-07-22T03:37:37.174Z,9.70
2018-07-22T03:38:37.355Z,9.10
2018-07-22T03:39:37.534Z,9.40
2018-07-22T03:40:37.708Z,9.20
2018-07-22T03:41:37.883Z,8.70
2018-07-22T03:42:38.064Z,9.10
2018-07-22T03:43:38.241Z,8.90
2018-07-22T03:44:38.418Z,9.10
2018-07-22T03:45:38.594Z,8.70
2018-07-22T03:46:38.775Z,8.60
2018-07-22T03:47:38.952Z,8.50
2018-07-22T03:48:39.132Z,8.90
2018-07-22T03:49:39.308Z,8.80
2018-07-22T03:50:39.478Z,9.50
2018-07-22T03:51:39.657Z,9.40
2018-07-22T03:52:39.836Z,9.00
2018-07-22T03:53:40.018Z,8.40
2018-07-22T03:54:40.197Z,8.60
2018-07-22T03:55:40.374Z,8.30
2018-07-22T03:56:40.551Z,8.70
2018-07-22T03:57:40.727Z,8.20
2018-07-22T03:58:40.903Z,8.50
2018-07-22T03:59:41.084Z,8.50
2018-07-22T04:00:41.259Z,9.00
2018-07-22T04:01:41.456Z,8.60
2018-07-22T04:02:41.637Z,9.20
2018-07-22T04:03:41.796Z,9.40
2018-07-22T04:04:41.969Z,9.40
2018-07-22T04:05:42.150Z,9.10
2018-07-22T04:06:42.325Z,9.50
2018-07-22T04:07:42.508Z,9.50
2018-07-22T04:08:42.680Z,9.70
2018-07-22T04:09:42.851Z,9.40
2018-07-22T04:10:43.032Z,10.10
2018-07-22T04:11:43.199Z,10.10
2018-07-22T04:12:43.381Z,9.50
2018-07-22T04:13:43.559Z,9.80
2018-07-22T04:14:43.737Z,9.40
2018-07-22T04:15:43.906Z,9.80
2018-07-22T04:16:44.093Z,9.20
2018-07-22T04:17:44.282Z,10.10
2018-07-22T04:18:44.457Z,8.90
2018-07-22T04:19:44.637Z,9.20
2018-07-22T04:20:44.816Z,9.50
2018-07-22T04:21:44.995Z,8.90
2018-07-22T04:22:45.218Z,9.20
2018-07-22T04:23:45.351Z,9.40
2018-07-22T04:24:45.533Z,9.30
2018-07-22T04:25:45.704Z,9.70
2018-07-22T04:26:45.887Z,9.30
2018-07-22T04:27:46.062Z,9.60
2018-07-22T04:28:46.258Z,9.90
2018-07-22T04:29:46.416Z,10.20
2018-07-22T04:30:46.595Z,9.90
2018-07-22T04:31:46.769Z,10.20
2018-07-22T04:32:46.950Z,10.00
2018-07-22T04:33:47.131Z,10.40
2018-07-22T04:34:47.312Z,9.80
2018-07-22T04:35:47.493Z,10.50
2018-07-22T04:36:48.673Z,10.80
2018-07-22T04:37:47.888Z,10.80
2018-07-22T04:38:48.068Z,10.40
2018-07-22T04:39:48.270Z,10.50
2018-07-22T04:40:48.493Z,11.00
2018-07-22T04:41:48.620Z,10.20
2018-07-22T04:42:48.799Z,10.00
2018-07-22T04:43:48.977Z,10.90
2018-07-22T04:44:49.161Z,10.30
2018-07-22T04:45:49.339Z,10.30
2018-07-22T04:46:49.528Z,10.60
2018-07-22T04:47:49.705Z,11.30
2018-07-22T04:48:49.904Z,10.70
2018-07-22T04:49:50.084Z,11.40
2018-07-22T04:50:50.261Z,10.70
2018-07-22T04:51:50.437Z,10.90
2018-07-22T04:52:50.608Z,11.50
2018-07-22T04:53:50.795Z,11.20
2018-07-22T04:54:54.753Z,10.60
2018-07-22T04:55:51.131Z,11.30
2018-07-22T04:56:51.308Z,10.70
2018-07-22T04:57:51.479Z,11.20
2018-07-22T04:58:51.658Z,11.00
2018-07-22T04:59:51.833Z,10.90
2018-07-22T05:00:52.015Z,11.50
2018-07-22T05:01:52.197Z,11.80
2018-07-22T05:02:52.382Z,11.10
2018-07-22T05:03:52.566Z,10.90
2018-07-22T05:04:52.749Z,11.10
2018-07-22T05:05:52.928Z,10.60
2018-07-22T05:06:53.172Z,10.10
2018-07-22T05:07:53.282Z,10.30
2018-07-22T05:08:53.460Z,10.10
2018-07-22T05:09:53.635Z,11.80
2018-07-22T05:10:53.812Z,10.60
2018-07-22T05:11:53.991Z,10.50
2018-07-22T05:12:54.172Z,10.50
2018-07-22T05:13:54.342Z,11.30
2018-07-22T05:14:54.525Z,11.00
2018-07-22T05:15:54.710Z,11.10
2018-07-22T05:16:56.268Z,11.50
2018-07-22T05:17:56.404Z,11.20
2018-07-22T05:18:56.891Z,11.40
2018-07-22T05:19:57.528Z,11.40
2018-07-22T05:20:57.022Z,11.50
2018-07-22T05:21:56.280Z,12.20
2018-07-22T05:22:56.391Z,12.20
2018-07-22T05:23:57.479Z,11.70
2018-07-22T05:24:57.592Z,11.80
2018-07-22T05:25:56.353Z,11.70
2018-07-22T05:26:56.551Z,11.90
2018-07-22T05:27:56.740Z,12.10
2018-07-22T05:28:56.919Z,12.20
2018-07-22T05:29:57.113Z,12.50
2018-07-22T05:30:57.281Z,12.20
2018-07-22T05:31:57.484Z,11.60
2018-07-22T05:32:57.667Z,11.90
2018-07-22T05:33:57.890Z,12.60
2018-07-22T05:34:58.042Z,12.90
2018-07-22T05:35:58.469Z,12.00
2018-07-22T05:36:58.695Z,11.60
2018-07-22T05:37:58.791Z,11.90
2018-07-22T05:38:58.959Z,11.80
2018-07-22T05:40:00.284Z,12.40
2018-07-22T05:41:00.486Z,12.40
2018-07-22T05:42:00.205Z,12.00
2018-07-22T05:43:03.762Z,12.60
2018-07-22T05:44:02.510Z,12.50
2018-07-22T05:45:01.113Z,12.40
2018-07-22T05:46:00.909Z,12.30
2018-07-22T05:47:01.626Z,12.00
2018-07-22T05:48:06.507Z,12.60
2018-07-22T05:49:02.786Z,12.20
2018-07-22T05:50:02.346Z,11.40
2018-07-22T05:51:03.603Z,10.80
2018-07-22T05:52:00.736Z,11.90
2018-07-22T05:53:00.887Z,11.10
2018-07-22T05:54:01.084Z,11.00
2018-07-22T05:55:01.255Z,11.00
2018-07-22T05:56:01.433Z,11.00
2018-07-22T05:57:01.639Z,11.70
2018-07-22T05:58:01.821Z,11.50
2018-07-22T05:59:02.001Z,11.30
2018-07-22T06:00:02.189Z,11.90
2018-07-22T06:01:02.370Z,11.50
2018-07-22T06:02:02.567Z,11.20
2018-07-22T06:03:02.761Z,11.20
2018-07-22T06:04:02.922Z,11.80
2018-07-22T06:05:03.101Z,11.20
2018-07-22T06:06:03.282Z,11.60
2018-07-22T06:07:03.463Z,11.80
2018-07-22T06:08:03.642Z,11.90
2018-07-22T06:09:05.177Z,11.90
2018-07-22T06:10:07.529Z,12.00
2018-07-22T06:11:04.118Z,11.80
2018-07-22T06:12:04.302Z,11.40
2018-07-22T06:13:04.472Z,12.30
2018-07-22T06:14:04.647Z,12.40
2018-07-22T06:15:04.822Z,12.40
2018-07-22T06:16:04.999Z,12.10
2018-07-22T06:17:05.184Z,12.00
2018-07-22T06:18:05.359Z,12.60
2018-07-22T06:19:05.528Z,13.20
2018-07-22T06:20:05.706Z,12.30
2018-07-22T06:21:05.884Z,12.70
2018-07-22T06:22:06.067Z,12.50
2018-07-22T06:23:06.249Z,12.70
2018-07-22T06:24:06.434Z,12.10
2018-07-22T06:25:06.603Z,12.30
2018-07-22T06:26:06.775Z,12.30
2018-07-22T06:27:06.954Z,12.70
2018-07-22T06:28:07.131Z,12.10
2018-07-22T06:29:07.305Z,12.40
2018-07-22T06:30:07.486Z,12.70
2018-07-22T06:31:07.664Z,12.20
2018-07-22T06:32:07.847Z,12.70
2018-07-22T06:33:08.044Z,13.10
2018-07-22T06:34:08.206Z,13.10
2018-07-22T06:35:08.411Z,13.10
2018-07-22T06:36:08.557Z,12.80
2018-07-22T06:37:08.742Z,12.20
2018-07-22T06:38:08.917Z,12.30
2018-07-22T06:39:09.092Z,12.50
2018-07-22T06:40:09.271Z,12.90
2018-07-22T06:41:09.463Z,12.40
2018-07-22T06:42:09.630Z,11.80
2018-07-22T06:43:09.820Z,12.50
2018-07-22T06:44:10.186Z,12.30
2018-07-22T06:45:10.169Z,12.10
2018-07-22T06:46:10.380Z,11.80
2018-07-22T06:47:10.522Z,11.70
2018-07-22T06:48:10.693Z,11.80
2018-07-22T06:49:10.870Z,12.50
2018-07-22T06:50:11.050Z,11.80
2018-07-22T06:51:11.227Z,11.60
2018-07-22T06:52:11.408Z,12.30
2018-07-22T06:53:11.589Z,11.50
2018-07-22T06:54:11.819Z,11.00
2018-07-22T06:55:11.943Z,11.30
2018-07-22T06:56:12.121Z,11.10
2018-07-22T06:57:12.357Z,11.40
2018-07-22T06:58:12.485Z,11.50
2018-07-22T06:59:12.666Z,11.80
2018-07-22T07:00:12.844Z,12.20
2018-07-22T07:01:13.029Z,11.10
2018-07-22T07:02:15.430Z,11.90
2018-07-22T07:03:16.960Z,11.30
2018-07-22T07:04:16.290Z,11.50
2018-07-22T07:05:16.638Z,11.90
2018-07-22T07:06:15.788Z,11.70
2018-07-22T07:07:16.934Z,11.90
2018-07-22T07:08:16.897Z,12.00
2018-07-22T07:09:17.511Z,12.00
2018-07-22T07:10:15.941Z,11.20
2018-07-22T07:11:18.931Z,11.20
2018-07-22T07:12:17.691Z,11.10
2018-07-22T07:13:15.818Z,11.00
2018-07-22T07:14:16.480Z,11.60
2018-07-22T07:15:16.870Z,11.70
2018-07-22T07:16:16.425Z,11.60
2018-07-22T07:17:17.310Z,11.90
2018-07-22T07:18:17.078Z,11.30
2018-07-22T07:19:15.784Z,11.70
2018-07-22T07:20:15.986Z,11.90
2018-07-22T07:21:16.180Z,11.60
2018-07-22T07:22:16.352Z,11.20
2018-07-22T07:23:16.541Z,11.40
2018-07-22T07:24:16.723Z,12.00
2018-07-22T07:25:16.968Z,12.10
2018-07-22T07:26:17.435Z,11.80
2018-07-22T07:27:17.308Z,12.00
2018-07-22T07:28:17.499Z,11.80
2018-07-22T07:29:17.688Z,11.90
2018-07-22T07:30:17.859Z,11.40
2018-07-22T07:31:18.697Z,11.00
2018-07-22T07:32:18.197Z,10.60
2018-07-22T07:33:18.391Z,10.80
2018-07-22T07:34:18.605Z,11.60
2018-07-22T07:35:18.749Z,10.20
2018-07-22T07:36:18.929Z,12.10
2018-07-22T07:37:19.115Z,12.00
2018-07-22T07:38:19.311Z,11.50
2018-07-22T07:39:19.514Z,11.70
2018-07-22T07:40:19.700Z,11.30
2018-07-22T07:41:19.870Z,10.90
2018-07-22T07:42:20.120Z,11.70
2018-07-22T07:43:20.274Z,11.30
2018-07-22T07:44:20.468Z,11.20
2018-07-22T07:45:20.838Z,11.30
2018-07-22T07:46:21.281Z,11.90
2018-07-22T07:47:21.332Z,11.70
2018-07-22T07:48:21.575Z,11.00
2018-07-22T07:49:21.437Z,11.30
2018-07-22T07:50:21.457Z,11.20
2018-07-22T07:51:21.652Z,11.30
2018-07-22T07:52:21.837Z,11.70
2018-07-22T07:53:22.059Z,11.40
2018-07-22T07:54:22.215Z,11.60
2018-07-22T07:55:22.402Z,11.40
2018-07-22T07:56:22.593Z,11.50
2018-07-22T07:57:22.846Z,11.60
2018-07-22T07:58:22.940Z,11.90
2018-07-22T07:59:23.126Z,11.30
2018-07-22T08:00:23.334Z,11.60
2018-07-22T08:01:23.499Z,11.60
2018-07-22T08:02:23.698Z,11.80
2018-07-22T08:03:24.107Z,11.60
2018-07-22T08:04:24.036Z,11.90
2018-07-22T08:05:24.206Z,12.10
2018-07-22T08:06:24.385Z,11.90
2018-07-22T08:07:24.559Z,12.50
2018-07-22T08:08:24.771Z,13.10
2018-07-22T08:09:24.974Z,12.00
2018-07-22T08:10:25.369Z,11.30
2018-07-22T08:11:25.324Z,11.80
2018-07-22T08:12:25.505Z,11.70
2018-07-22T08:13:25.689Z,12.00
2018-07-22T08:14:25.872Z,11.50
2018-07-22T08:15:27.347Z,11.40
2018-07-22T08:16:26.246Z,11.70
2018-07-22T08:17:26.427Z,11.60
2018-07-22T08:18:26.844Z,11.50
2018-07-22T08:19:26.799Z,11.80
2018-07-22T08:20:26.978Z,11.40
2018-07-22T08:21:27.218Z,11.40
2018-07-22T08:22:27.349Z,11.80
2018-07-22T08:23:27.543Z,11.50
2018-07-22T08:24:27.807Z,12.30
2018-07-22T08:25:27.952Z,11.10
2018-07-22T08:26:27.994Z,10.80
2018-07-22T08:27:28.814Z,10.80
2018-07-22T08:28:28.976Z,11.10
2018-07-22T08:29:28.680Z,10.10
2018-07-22T08:30:29.503Z,10.20
2018-07-22T08:31:30.775Z,10.20
2018-07-22T08:32:29.588Z,10.80
2018-07-22T08:33:30.270Z,10.50
2018-07-22T08:34:30.423Z,10.20
2018-07-22T08:35:31.040Z,10.10
2018-07-22T08:36:30.659Z,9.70
2018-07-22T08:37:31.896Z,10.30
2018-07-22T08:38:31.627Z,10.20
2018-07-22T08:39:31.447Z,10.10
2018-07-22T08:40:32.249Z,10.30
2018-07-22T08:41:30.941Z,9.80
2018-07-22T08:42:32.029Z,10.20
2018-07-22T08:43:31.063Z,10.40
2018-07-22T08:44:32.276Z,10.00
2018-07-22T08:45:32.722Z,10.70
2018-07-22T08:46:32.197Z,11.20
2018-07-22T08:47:32.930Z,10.90
2018-07-22T08:48:32.469Z,10.70
2018-07-22T08:49:33.703Z,10.20
2018-07-22T08:50:34.028Z,10.20
2018-07-22T08:51:33.307Z,10.80
2018-07-22T08:52:32.622Z,11.00
2018-07-22T08:53:32.986Z,9.80
2018-07-22T08:54:32.754Z,10.30
2018-07-22T08:55:33.364Z,10.70
2018-07-22T08:56:32.973Z,10.60
2018-07-22T08:57:33.150Z,10.20
2018-07-22T08:58:33.762Z,10.10
2018-07-22T08:59:33.528Z,9.90
2018-07-22T09:00:33.716Z,10.60
2018-07-22T09:01:33.903Z,10.40
2018-07-22T09:02:34.296Z,10.30
2018-07-22T09:03:34.813Z,10.30
2018-07-22T09:04:34.542Z,10.00
2018-07-22T09:05:34.679Z,11.00
2018-07-22T09:06:34.921Z,9.80
2018-07-22T09:07:34.980Z,10.10
2018-07-22T09:08:35.165Z,10.70
2018-07-22T09:09:35.347Z,9.90
2018-07-22T09:10:37.113Z,11.00
2018-07-22T09:11:35.747Z,10.40
2018-07-22T09:12:35.923Z,10.80
2018-07-22T09:13:36.968Z,10.50
2018-07-22T09:14:36.454Z,10.70
2018-07-22T09:15:36.733Z,10.60
2018-07-22T09:16:36.630Z,10.80
2018-07-22T09:17:36.950Z,9.90
2018-07-22T09:18:38.484Z,9.80
2018-07-22T09:19:37.141Z,11.10
2018-07-22T09:20:37.857Z,10.70
2018-07-22T09:21:37.636Z,10.80
2018-07-22T09:22:38.249Z,10.50
2018-07-22T09:23:37.810Z,10.60
2018-07-22T09:24:38.120Z,10.50
2018-07-22T09:25:38.223Z,10.80
2018-07-22T09:26:38.385Z,11.10
2018-07-22T09:27:38.683Z,10.90
2018-07-22T09:28:39.100Z,11.20
2018-07-22T09:29:38.910Z,10.50
2018-07-22T09:30:39.169Z,10.50
2018-07-22T09:31:40.102Z,9.90
2018-07-22T09:32:40.182Z,10.40
2018-07-22T09:33:40.106Z,10.50
2018-07-22T09:34:40.179Z,10.30
2018-07-22T09:35:40.008Z,9.80
2018-07-22T09:36:40.263Z,10.40
2018-07-22T09:37:40.405Z,9.90
2018-07-22T09:38:40.596Z,10.40
2018-07-22T09:39:40.827Z,10.20
2018-07-22T09:40:41.023Z,9.60
2018-07-22T09:41:41.140Z,10.20
2018-07-22T09:42:41.305Z,10.80
2018-07-22T09:43:41.478Z,10.20
2018-07-22T09:44:41.671Z,10.10
2018-07-22T09:45:42.446Z,10.50
2018-07-22T09:46:42.130Z,10.30
2018-07-22T09:47:42.204Z,10.50
2018-07-22T09:48:42.406Z,10.00
2018-07-22T09:49:42.597Z,10.40
2018-07-22T09:50:43.064Z,10.00
2018-07-22T09:51:42.997Z,10.30
2018-07-22T09:52:43.181Z,10.10
2018-07-22T09:53:43.432Z,10.00
2018-07-22T09:54:43.622Z,9.40
2018-07-22T09:55:45.412Z,9.20
2018-07-22T09:56:43.837Z,10.10
2018-07-22T09:57:44.012Z,9.90
2018-07-22T09:58:44.194Z,9.30
2018-07-22T09:59:44.496Z,10.20
2018-07-22T10:00:44.562Z,9.00
2018-07-22T10:01:44.747Z,9.00
2018-07-22T10:02:44.827Z,9.60
2018-07-22T10:03:45.007Z,9.00
2018-07-22T10:04:45.221Z,9.20
2018-07-22T10:05:45.374Z,9.60
2018-07-22T10:06:45.554Z,9.10
2018-07-22T10:07:45.795Z,9.90
2018-07-22T10:08:46.015Z,9.00
2018-07-22T10:09:48.533Z,9.70
2018-07-22T10:10:49.341Z,9.10
2018-07-22T10:11:47.501Z,8.70
2018-07-22T10:12:50.035Z,9.10
2018-07-22T10:13:47.651Z,8.40
2018-07-22T10:14:47.125Z,8.80
2018-07-22T10:15:47.230Z,9.10
2018-07-22T10:16:47.411Z,9.50
2018-07-22T10:17:47.596Z,8.30
2018-07-22T10:18:47.780Z,8.20
2018-07-22T10:19:47.954Z,9.00
2018-07-22T10:20:48.134Z,8.20
2018-07-22T10:21:48.322Z,8.90
2018-07-22T10:22:48.502Z,8.60
2018-07-22T10:23:48.692Z,9.10
2018-07-22T10:24:48.860Z,9.90
2018-07-22T10:25:49.047Z,8.90
2018-07-22T10:26:49.232Z,8.70
2018-07-22T10:27:49.413Z,8.20
2018-07-22T10:28:49.597Z,7.90
2018-07-22T10:29:49.778Z,7.60
2018-07-22T10:30:49.951Z,7.60
2018-07-22T10:31:50.132Z,7.80
2018-07-22T10:32:50.309Z,7.40
2018-07-22T10:33:50.496Z,7.50
2018-07-22T10:34:50.686Z,7.70
2018-07-22T10:35:50.931Z,7.70
2018-07-22T10:36:51.044Z,7.70
2018-07-22T10:37:51.227Z,7.80
2018-07-22T10:38:51.408Z,7.60
2018-07-22T10:39:51.593Z,7.40
2018-07-22T10:40:51.800Z,8.10
2018-07-22T10:41:52.077Z,8.00
2018-07-22T10:42:52.202Z,8.20
2018-07-22T10:43:52.382Z,8.30
2018-07-22T10:44:52.558Z,7.60
2018-07-22T10:45:52.737Z,7.60
2018-07-22T10:46:52.929Z,7.10
2018-07-22T10:47:53.108Z,7.60
2018-07-22T10:48:53.287Z,7.30
2018-07-22T10:49:53.470Z,7.90
2018-07-22T10:50:53.711Z,7.60
2018-07-22T10:51:53.841Z,7.60
2018-07-22T10:52:54.018Z,7.70
2018-07-22T10:53:54.201Z,7.10
2018-07-22T10:54:54.387Z,7.80
2018-07-22T10:55:54.571Z,7.30
2018-07-22T10:56:54.971Z,7.60
2018-07-22T10:57:54.950Z,7.10
2018-07-22T10:58:55.137Z,7.30
2018-07-22T10:59:55.326Z,7.30
2018-07-22T11:00:55.517Z,7.30
2018-07-22T11:01:55.706Z,7.00
2018-07-22T11:02:55.900Z,6.80
2018-07-22T11:03:56.073Z,7.10
2018-07-22T11:04:56.260Z,7.10
2018-07-22T11:05:56.444Z,7.20
2018-07-22T11:06:56.626Z,7.00
2018-07-22T11:07:56.806Z,6.90
2018-07-22T11:08:56.986Z,6.80
2018-07-22T11:09:58.812Z,7.10
2018-07-22T11:10:59.132Z,7.10
2018-07-22T11:11:58.859Z,6.90
2018-07-22T11:12:59.935Z,7.50
2018-07-22T11:13:58.143Z,7.60
2018-07-22T11:14:59.916Z,7.70
2018-07-22T11:15:59.476Z,7.70
2018-07-22T11:17:01.935Z,7.60
2018-07-22T11:17:58.514Z,7.30
2018-07-22T11:19:00.472Z,7.80
2018-07-22T11:19:58.917Z,8.10
2018-07-22T11:20:59.166Z,7.10
2018-07-22T11:21:59.318Z,6.80
2018-07-22T11:22:59.492Z,6.80
2018-07-22T11:23:59.719Z,7.30
2018-07-22T11:25:00.251Z,7.10
2018-07-22T11:26:00.093Z,7.20
2018-07-22T11:27:00.348Z,7.30
2018-07-22T11:28:01.371Z,7.40
2018-07-22T11:29:00.914Z,7.60
2018-07-22T11:30:01.493Z,7.10
2018-07-22T11:31:01.019Z,7.30
2018-07-22T11:32:01.107Z,7.30
2018-07-22T11:33:01.300Z,7.10
2018-07-22T11:34:01.520Z,7.20
2018-07-22T11:35:01.732Z,7.10
2018-07-22T11:36:01.863Z,6.70
2018-07-22T11:37:02.188Z,6.20
2018-07-22T11:38:02.193Z,6.80
2018-07-22T11:39:02.791Z,7.30
2018-07-22T11:40:03.814Z,7.30
2018-07-22T11:41:02.842Z,7.70
2018-07-22T11:42:03.027Z,7.90
2018-07-22T11:43:03.234Z,7.10
2018-07-22T11:44:03.402Z,6.80
2018-07-22T11:45:03.599Z,6.70
2018-07-22T11:46:04.188Z,6.50
2018-07-22T11:47:04.073Z,6.80
2018-07-22T11:48:04.144Z,7.00
2018-07-22T11:49:04.323Z,6.50
2018-07-22T11:50:04.689Z,6.50
2018-07-22T11:51:04.709Z,6.50
2018-07-22T11:52:04.794Z,7.50
2018-07-22T11:53:05.052Z,6.40
2018-07-22T11:54:05.250Z,5.80
2018-07-22T11:55:05.402Z,6.20
2018-07-22T11:56:05.801Z,6.30
2018-07-22T11:57:05.774Z,6.20
2018-07-22T11:58:05.969Z,6.40
2018-07-22T11:59:06.189Z,6.10
2018-07-22T12:00:06.426Z,6.50
2018-07-22T12:01:06.557Z,5.80
2018-07-22T12:02:06.861Z,6.50
2018-07-22T12:03:06.948Z,6.50
2018-07-22T12:04:09.444Z,6.30
2018-07-22T12:05:07.347Z,6.40
2018-07-22T12:06:07.642Z,6.60
2018-07-22T12:07:07.687Z,6.80
2018-07-22T12:08:08.893Z,6.40
2018-07-22T12:09:08.085Z,6.30
2018-07-22T12:10:08.392Z,5.90
2018-07-22T12:11:08.488Z,6.60
2018-07-22T12:12:09.527Z,6.80
2018-07-22T12:13:09.488Z,6.30
2018-07-22T12:14:09.986Z,6.10
2018-07-22T12:15:09.920Z,6.30
2018-07-22T12:16:10.177Z,6.70
2018-07-22T12:17:09.824Z,6.50
2018-07-22T12:18:10.516Z,6.40
2018-07-22T12:19:10.750Z,5.90
2018-07-22T12:20:10.584Z,6.30
2018-07-22T12:21:11.052Z,6.30
2018-07-22T12:22:10.517Z,6.10
2018-07-22T12:23:11.096Z,6.00
2018-07-22T12:24:10.715Z,6.10
2018-07-22T12:25:10.908Z,6.00
2018-07-22T12:26:11.081Z,5.80
2018-07-22T12:27:11.310Z,5.50
2018-07-22T12:28:11.488Z,5.60
2018-07-22T12:29:11.659Z,5.80
2018-07-22T12:30:11.912Z,5.80
2018-07-22T12:31:11.965Z,5.70
2018-07-22T12:32:12.146Z,6.10
2018-07-22T12:33:12.361Z,5.60
2018-07-22T12:34:12.590Z,5.90
2018-07-22T12:35:12.736Z,5.70
2018-07-22T12:36:12.921Z,5.80
2018-07-22T12:37:13.107Z,5.80
2018-07-22T12:38:13.289Z,5.90
2018-07-22T12:39:13.469Z,5.70
2018-07-22T12:40:13.669Z,5.80
2018-07-22T12:41:13.957Z,5.90
2018-07-22T12:42:14.026Z,6.10
2018-07-22T12:43:14.205Z,5.90
2018-07-22T12:44:14.390Z,5.90
2018-07-22T12:45:14.570Z,5.70
2018-07-22T12:46:14.754Z,5.80
2018-07-22T12:47:14.936Z,5.50
2018-07-22T12:48:15.120Z,5.90
2018-07-22T12:49:15.365Z,6.10
2018-07-22T12:50:15.614Z,5.40
2018-07-22T12:51:15.670Z,5.60
2018-07-22T12:52:15.868Z,5.60
2018-07-22T12:53:16.675Z,5.80
2018-07-22T12:54:16.513Z,5.90
2018-07-22T12:55:16.305Z,5.70
2018-07-22T12:56:16.484Z,5.90
2018-07-22T12:57:16.664Z,5.70
2018-07-22T12:58:16.842Z,6.20
2018-07-22T12:59:17.024Z,5.60
2018-07-22T13:00:17.199Z,5.90
2018-07-22T13:01:17.382Z,5.90
2018-07-22T13:02:17.569Z,5.80
2018-07-22T13:03:18.229Z,6.00
2018-07-22T13:04:17.916Z,5.90
2018-07-22T13:05:18.107Z,6.10
2018-07-22T13:06:18.290Z,5.70
2018-07-22T13:07:18.465Z,6.00
2018-07-22T13:08:18.650Z,6.50
2018-07-22T13:09:18.847Z,6.00
2018-07-22T13:10:19.017Z,5.60